Time;durP1;ratioP1;P1;durP2;ratioP2;P2;SDS_P1;SDS_P2;PMS_P1;PMS_P2;Temp;Humidity;BMP_temperature;BMP_pressure;BME280_temperature;BME280_humidity;BME280_pressure;Samples;Min_cycle;Max_cycle;Signal;HPM_P1;HPM_P2
2023/01/09 00:02:14;;;;;;;0.47;0.47;;;;;;;;;;5066521;28;20020;-45
2023/01/09 00:04:40;;;;;;;0.45;0.40;;;;;;;;;;5067739;28;20031;-47
2023/01/09 00:07:07;;;;;;;1.13;0.50;;;;;;;;;;5067626;28;20040;-46
2023/01/09 00:09:33;;;;;;;0.40;0.40;;;;;;;;;;5067573;28;20043;-47
2023/01/09 00:12:01;;;;;;;0.93;0.40;;;;;;;;;;5067422;28;20503;-45
2023/01/09 00:14:27;;;;;;;0.73;0.30;;;;;;;;;;5067925;28;20035;-47
2023/01/09 00:16:56;;;;;;;0.20;0.20;;;;;;;;;;5066670;28;20029;-45
2023/01/09 00:19:22;;;;;;;0.30;0.30;;;;;;;;;;5067893;28;20027;-44
2023/01/09 00:21:49;;;;;;;0.63;0.43;;;;;;;;;;5068163;28;20024;-48
2023/01/09 00:24:15;;;;;;;0.40;0.40;;;;;;;;;;5067033;28;20032;-48
2023/01/09 00:26:42;;;;;;;0.60;0.40;;;;;;;;;;5067531;28;20036;-49
2023/01/09 00:29:09;;;;;;;0.30;0.30;;;;;;;;;;5067155;28;20608;-46
2023/01/09 00:31:35;;;;;;;1.38;0.38;;;;;;;;;;5049339;28;20040;-48
2023/01/09 00:34:06;;;;;;;0.32;0.32;;;;;;;;;;5045526;28;20434;-45
2023/01/09 00:36:33;;;;;;;0.47;0.32;;;;;;;;;;5048603;28;20033;-45
2023/01/09 00:38:59;;;;;;;0.70;0.40;;;;;;;;;;5059500;28;20027;-44
2023/01/09 00:41:28;;;;;;;0.70;0.50;;;;;;;;;;5064187;28;20028;-44
2023/01/09 00:43:56;;;;;;;0.50;0.50;;;;;;;;;;5060772;28;20507;-45
2023/01/09 00:46:24;;;;;;;0.75;0.40;;;;;;;;;;5070127;28;20070;-44
2023/01/09 00:48:50;;;;;;;0.55;0.30;;;;;;;;;;5069621;28;20070;-45
2023/01/09 00:51:18;;;;;;;0.70;0.40;;;;;;;;;;5069777;28;20616;-45
2023/01/09 00:53:44;;;;;;;0.30;0.30;;;;;;;;;;5069492;28;20024;-45
2023/01/09 00:56:13;;;;;;;0.40;0.30;;;;;;;;;;5069717;28;20030;-45
2023/01/09 00:58:39;;;;;;;1.45;0.35;;;;;;;;;;5068651;28;20042;-45
2023/01/09 01:01:05;;;;;;;0.30;0.30;;;;;;;;;;5069509;28;20034;-46
2023/01/09 01:03:32;;;;;;;0.30;0.30;;;;;;;;;;5069255;28;20025;-45
2023/01/09 06:13:39;;;;;;;5.32;2.60;;;;;;;;;;5091914;28;20054;-45
2023/01/09 06:16:06;;;;;;;5.60;2.45;;;;;;;;;;5108782;28;20019;-44
2023/01/09 06:18:32;;;;;;;4.35;2.17;;;;;;;;;;5108974;28;20023;-45
2023/01/09 06:20:58;;;;;;;3.00;2.00;;;;;;;;;;5109091;28;20421;-45
2023/01/09 06:23:24;;;;;;;2.28;1.58;;;;;;;;;;5104950;28;20031;-47
2023/01/09 06:25:50;;;;;;;2.53;1.60;;;;;;;;;;5107896;28;20028;-45
2023/01/09 06:28:16;;;;;;;2.95;1.80;;;;;;;;;;5109267;28;20394;-47
2023/01/09 06:30:42;;;;;;;1.63;1.23;;;;;;;;;;5108894;28;20024;-43
2023/01/09 06:33:08;;;;;;;2.13;1.50;;;;;;;;;;5109663;28;20081;-44
2023/01/09 06:35:34;;;;;;;1.70;1.20;;;;;;;;;;5113079;28;20596;-45
2023/01/09 06:38:02;;;;;;;1.08;0.82;;;;;;;;;;5104530;28;20020;-46
2023/01/09 06:40:28;;;;;;;0.98;0.80;;;;;;;;;;5092748;28;20020;-45
2023/01/09 06:42:54;;;;;;;1.67;1.10;;;;;;;;;;5097575;28;20019;-45
2023/01/09 06:45:20;;;;;;;2.60;1.50;;;;;;;;;;5112807;28;20421;-44
2023/01/09 06:47:47;;;;;;;3.45;1.30;;;;;;;;;;5113000;28;20032;-45
2023/01/09 06:50:13;;;;;;;2.35;1.30;;;;;;;;;;5112753;28;20068;-45
2023/01/09 06:52:39;;;;;;;3.33;1.70;;;;;;;;;;5112570;28;20829;-45
2023/01/09 06:55:05;;;;;;;2.75;1.55;;;;;;;;;;5111475;28;20028;-45
2023/01/09 06:57:31;;;;;;;3.95;1.70;;;;;;;;;;5112489;28;20063;-45
2023/01/09 06:59:57;;;;;;;2.42;1.20;;;;;;;;;;5112324;28;20027;-48
2023/01/09 07:02:23;;;;;;;2.35;1.25;;;;;;;;;;5098808;28;20077;-45
2023/01/09 07:04:49;;;;;;;3.00;1.38;;;;;;;;;;5131069;27;20027;-45
2023/01/09 07:07:17;;;;;;;1.88;1.15;;;;;;;;;;5127455;27;20050;-45
2023/01/09 07:09:43;;;;;;;2.10;1.10;;;;;;;;;;5112258;28;20040;-47
2023/01/09 07:12:09;;;;;;;1.60;1.00;;;;;;;;;;5112276;28;20024;-45
2023/01/09 07:14:35;;;;;;;2.30;1.40;;;;;;;;;;5112066;28;20044;-45
2023/01/09 07:17:01;;;;;;;1.85;0.90;;;;;;;;;;5108325;28;20129;-44
2023/01/09 07:19:27;;;;;;;1.30;1.00;;;;;;;;;;5112203;28;20394;-44
2023/01/09 07:21:53;;;;;;;1.50;0.93;;;;;;;;;;5111594;28;20028;-45
2023/01/09 07:24:19;;;;;;;3.13;1.25;;;;;;;;;;5111951;28;20118;-45
2023/01/09 07:26:46;;;;;;;2.17;1.13;;;;;;;;;;5111791;28;20493;-46
2023/01/09 07:29:12;;;;;;;1.88;1.15;;;;;;;;;;5111940;28;20027;-46
2023/01/09 07:31:39;;;;;;;1.75;1.00;;;;;;;;;;5110284;28;20051;-45
2023/01/09 07:34:05;;;;;;;1.80;0.95;;;;;;;;;;5111557;28;20027;-44
2023/01/09 07:36:32;;;;;;;2.35;0.95;;;;;;;;;;5111732;28;20024;-46
2023/01/09 07:38:58;;;;;;;1.63;0.70;;;;;;;;;;5111514;28;20024;-45
2023/01/09 07:41:24;;;;;;;3.00;0.80;;;;;;;;;;5111806;28;20030;-45
2023/01/09 07:43:50;;;;;;;1.27;0.95;;;;;;;;;;5111313;28;20098;-45
2023/01/09 07:46:16;;;;;;;4.40;1.70;;;;;;;;;;5111052;28;20024;-45
2023/01/09 07:48:42;;;;;;;3.22;1.65;;;;;;;;;;5110106;28;20027;-47
2023/01/09 07:51:09;;;;;;;3.72;2.17;;;;;;;;;;5111363;28;20024;-45
2023/01/09 07:53:35;;;;;;;3.72;2.10;;;;;;;;;;5111314;28;20295;-45
2023/01/09 07:56:01;;;;;;;2.90;1.40;;;;;;;;;;5111146;28;20039;-45
2023/01/09 07:58:27;;;;;;;3.25;1.60;;;;;;;;;;5104592;28;20030;-45
2023/01/09 08:00:53;;;;;;;3.13;1.35;;;;;;;;;;5110277;28;20028;-45
2023/01/09 08:03:19;;;;;;;2.22;1.48;;;;;;;;;;5112329;27;20035;-44
2023/01/09 08:05:45;;;;;;;2.08;1.42;;;;;;;;;;5111964;27;20560;-44
2023/01/09 08:08:13;;;;;;;1.55;1.00;;;;;;;;;;5103399;28;20024;-48
2023/01/09 08:10:39;;;;;;;1.10;0.98;;;;;;;;;;5109936;28;20430;-45
2023/01/09 08:13:05;;;;;;;2.80;1.30;;;;;;;;;;5110610;28;20031;-45
2023/01/09 08:15:32;;;;;;;2.00;1.13;;;;;;;;;;5111990;28;20443;-45
2023/01/09 08:17:58;;;;;;;2.35;1.38;;;;;;;;;;5106743;28;20019;-45
2023/01/09 08:20:24;;;;;;;2.58;1.20;;;;;;;;;;5111879;28;20027;-45
2023/01/09 08:22:52;;;;;;;2.22;1.23;;;;;;;;;;5109235;28;20026;-47
2023/01/09 08:25:18;;;;;;;2.22;1.00;;;;;;;;;;5091467;28;20028;-45
2023/01/09 08:27:44;;;;;;;3.90;1.35;;;;;;;;;;5100275;27;20030;-44
2023/01/09 08:30:11;;;;;;;1.25;0.70;;;;;;;;;;5108243;28;20456;-45
2023/01/09 08:32:37;;;;;;;1.70;0.90;;;;;;;;;;5111440;28;20110;-48
2023/01/09 08:35:03;;;;;;;1.73;0.93;;;;;;;;;;5108982;28;20030;-44
2023/01/09 08:37:29;;;;;;;0.80;0.60;;;;;;;;;;5111033;27;20054;-46
2023/01/09 08:39:55;;;;;;;3.78;1.17;;;;;;;;;;5111268;28;20390;-46
2023/01/09 08:47:52;;;;;;;1.77;1.00;;;;;;;;;;5110196;28;20030;-44
2023/01/09 08:50:18;;;;;;;2.05;1.05;;;;;;;;;;5111393;28;20510;-46
2023/01/09 08:52:44;;;;;;;1.92;0.80;;;;;;;;;;5107660;28;20107;-45
2023/01/09 08:55:10;;;;;;;2.05;1.17;;;;;;;;;;5111044;28;20786;-45
2023/01/09 08:57:36;;;;;;;2.05;1.00;;;;;;;;;;5108696;28;20114;-45
2023/01/09 09:00:03;;;;;;;1.90;1.10;;;;;;;;;;5110770;28;20024;-45
2023/01/09 09:02:29;;;;;;;2.42;1.50;;;;;;;;;;5110302;28;20019;-44
2023/01/09 09:04:55;;;;;;;5.20;2.30;;;;;;;;;;5100479;28;20317;-45
2023/01/09 09:07:25;;;;;;;4.82;1.80;;;;;;;;;;5110801;28;20038;-45
2023/01/09 09:09:54;;;;;;;7.40;2.20;;;;;;;;;;5103505;28;20053;-45
2023/01/09 09:12:22;;;;;;;5.65;1.77;;;;;;;;;;5110518;28;20102;-45
2023/01/09 09:17:33;;;;;;;2.22;1.30;;;;;;;;;;5110670;28;20050;-47
2023/01/09 09:19:59;;;;;;;2.38;1.27;;;;;;;;;;5109227;28;20015;-46
2023/01/09 09:22:26;;;;;;;3.42;1.30;;;;;;;;;;5109200;28;20237;-46
2023/01/09 09:24:52;;;;;;;3.00;1.17;;;;;;;;;;5094909;28;20030;-45
2023/01/09 09:27:18;;;;;;;2.42;1.10;;;;;;;;;;5089948;28;20187;-45
2023/01/09 09:29:44;;;;;;;3.30;1.45;;;;;;;;;;5115933;27;20474;-44
2023/01/09 09:32:10;;;;;;;5.05;1.52;;;;;;;;;;5129595;27;20080;-45
2023/01/09 09:34:37;;;;;;;2.75;1.10;;;;;;;;;;5127865;27;20175;-46
2023/01/09 09:37:03;;;;;;;5.72;1.40;;;;;;;;;;5129454;27;20084;-46
2023/01/09 09:39:29;;;;;;;4.70;1.42;;;;;;;;;;5129423;27;20027;-44
2023/01/09 09:44:47;;;;;;;2.47;1.30;;;;;;;;;;5129456;27;20030;-46
2023/01/09 09:47:13;;;;;;;2.20;1.02;;;;;;;;;;5129918;27;20023;-45
2023/01/09 09:49:42;;;;;;;3.45;1.05;;;;;;;;;;5129219;27;20031;-44
2023/01/09 09:52:14;;;;;;;2.05;0.82;;;;;;;;;;5129536;27;20267;-46
2023/01/09 09:54:43;;;;;;;2.35;0.95;;;;;;;;;;5129392;27;20096;-44
2023/01/09 09:57:12;;;;;;;2.90;0.90;;;;;;;;;;5123638;27;20042;-45
2023/01/09 09:59:40;;;;;;;3.00;0.90;;;;;;;;;;5108509;28;20020;-45
2023/01/09 10:02:09;;;;;;;1.85;0.93;;;;;;;;;;5107855;28;20397;-46
2023/01/09 10:04:38;;;;;;;1.55;0.85;;;;;;;;;;5108576;28;20385;-46
2023/01/09 10:07:08;;;;;;;2.65;0.98;;;;;;;;;;5108645;28;20028;-44
2023/01/09 10:09:34;;;;;;;1.67;0.85;;;;;;;;;;5104282;28;20034;-44
2023/01/09 10:12:10;;;;;;;3.47;1.23;;;;;;;;;;5114158;27;20027;-47
2023/01/09 10:14:36;;;;;;;5.57;1.00;;;;;;;;;;5128799;27;20045;-45
2023/01/09 10:17:09;;;;;;;3.22;0.90;;;;;;;;;;5128890;27;20027;-46
2023/01/09 10:19:56;;;;;;;2.90;0.70;;;;;;;;;;5128914;27;20081;-45
2023/01/09 10:22:22;;;;;;;2.30;1.00;;;;;;;;;;5129080;28;20073;-46
2023/01/09 10:24:48;;;;;;;1.30;0.80;;;;;;;;;;5129137;28;20023;-46
2023/01/09 10:27:17;;;;;;;4.15;0.70;;;;;;;;;;5122161;28;20023;-45
2023/01/09 10:29:43;;;;;;;4.63;1.08;;;;;;;;;;5107541;28;20039;-45
2023/01/09 10:32:26;;;;;;;2.63;1.00;;;;;;;;;;5106761;28;20050;-45
2023/01/09 10:34:54;;;;;;;1.83;0.65;;;;;;;;;;5107141;28;20032;-45
2023/01/09 10:37:30;;;;;;;2.05;0.88;;;;;;;;;;5108191;28;20024;-46
2023/01/09 10:40:03;;;;;;;2.47;0.90;;;;;;;;;;5108319;28;20019;-45
2023/01/09 10:42:35;;;;;;;4.65;0.82;;;;;;;;;;5107096;28;20031;-45
2023/01/09 10:45:01;;;;;;;1.73;0.70;;;;;;;;;;5108344;28;20061;-45
2023/01/09 10:47:30;;;;;;;1.52;0.80;;;;;;;;;;5108191;28;20105;-45
2023/01/09 10:49:57;;;;;;;2.67;1.15;;;;;;;;;;5106856;28;20039;-46
2023/01/09 10:52:43;;;;;;;2.30;0.60;;;;;;;;;;5108013;28;20031;-46
2023/01/09 10:55:13;;;;;;;1.75;0.70;;;;;;;;;;5108052;28;20495;-45
2023/01/09 10:57:43;;;;;;;1.45;0.60;;;;;;;;;;5107920;28;20040;-45
2023/01/09 11:00:16;;;;;;;1.85;0.80;;;;;;;;;;5108056;28;20387;-44
2023/01/09 11:02:42;;;;;;;1.98;0.80;;;;;;;;;;5109124;28;20502;-46
2023/01/09 11:05:19;;;;;;;1.27;0.68;;;;;;;;;;5128541;28;20022;-46
2023/01/09 11:07:48;;;;;;;1.60;0.70;;;;;;;;;;5115202;28;20114;-45
2023/01/09 11:10:15;;;;;;;1.90;0.80;;;;;;;;;;5103837;28;20027;-45
2023/01/09 11:12:41;;;;;;;1.63;0.70;;;;;;;;;;5101104;28;20199;-46
2023/01/09 11:15:19;;;;;;;3.30;0.90;;;;;;;;;;5107553;28;20039;-46
2023/01/09 11:17:46;;;;;;;1.65;0.90;;;;;;;;;;5108089;28;20505;-46
2023/01/09 11:20:15;;;;;;;2.53;1.00;;;;;;;;;;5108782;28;20038;-45
2023/01/09 11:22:46;;;;;;;2.88;0.70;;;;;;;;;;5110540;28;20027;-45
2023/01/09 11:25:13;;;;;;;1.77;0.60;;;;;;;;;;5111491;27;20030;-45
2023/01/09 11:27:39;;;;;;;1.45;0.70;;;;;;;;;;5112081;27;20073;-47
2023/01/09 11:30:05;;;;;;;1.13;0.60;;;;;;;;;;5111505;28;20042;-45
2023/01/09 11:32:32;;;;;;;2.95;0.82;;;;;;;;;;5111433;28;20426;-46
2023/01/09 11:34:58;;;;;;;1.92;0.60;;;;;;;;;;5111461;28;20027;-44
2023/01/09 11:37:25;;;;;;;2.72;1.08;;;;;;;;;;5127730;27;20085;-45
2023/01/09 11:39:52;;;;;;;2.53;0.90;;;;;;;;;;5131940;27;20027;-46
2023/01/09 11:45:33;;;;;;;4.13;0.90;;;;;;;;;;5106019;27;20039;-44
2023/01/09 11:48:00;;;;;;;3.38;1.00;;;;;;;;;;5111301;28;20046;-44
2023/01/09 11:50:27;;;;;;;2.00;0.95;;;;;;;;;;5111229;28;20051;-46
2023/01/09 11:53:13;;;;;;;1.70;0.80;;;;;;;;;;5109456;28;20019;-46
2023/01/09 11:55:40;;;;;;;2.17;0.70;;;;;;;;;;5101116;27;20036;-46
2023/01/09 11:58:08;;;;;;;1.50;0.63;;;;;;;;;;5090609;28;20071;-46
2023/01/09 12:00:41;;;;;;;1.10;0.60;;;;;;;;;;5090481;28;20103;-45
2023/01/09 12:03:13;;;;;;;0.68;0.50;;;;;;;;;;5099586;27;20019;-45
2023/01/09 12:05:59;;;;;;;2.17;0.80;;;;;;;;;;5131545;27;20027;-47
2023/01/09 12:08:25;;;;;;;1.88;0.82;;;;;;;;;;5126965;27;20044;-45
2023/01/09 12:11:09;;;;;;;1.98;0.65;;;;;;;;;;5110412;27;20028;-45
2023/01/09 12:13:35;;;;;;;0.95;0.50;;;;;;;;;;5109260;28;20039;-46
2023/01/09 12:16:03;;;;;;;1.45;0.63;;;;;;;;;;5110530;28;20115;-44
2023/01/09 12:18:35;;;;;;;0.95;0.60;;;;;;;;;;5110038;28;20032;-48
2023/01/09 12:21:05;;;;;;;1.50;0.40;;;;;;;;;;5092934;28;20032;-44
2023/01/09 12:23:53;;;;;;;1.10;0.60;;;;;;;;;;5099779;28;20020;-44
2023/01/09 12:26:23;;;;;;;1.65;0.60;;;;;;;;;;5102922;28;20123;-45
2023/01/09 12:29:08;;;;;;;1.55;0.73;;;;;;;;;;5104895;28;20027;-45
2023/01/09 12:31:40;;;;;;;1.10;0.80;;;;;;;;;;5110987;28;20027;-46
2023/01/09 12:34:13;;;;;;;1.20;0.70;;;;;;;;;;5111060;28;20036;-44
2023/01/09 12:36:54;;;;;;;3.15;0.80;;;;;;;;;;5111199;28;20028;-45
2023/01/09 12:39:33;;;;;;;2.75;1.00;;;;;;;;;;5105252;28;20059;-45
2023/01/09 12:41:59;;;;;;;1.95;0.80;;;;;;;;;;5090886;28;20020;-44
2023/01/09 12:44:29;;;;;;;2.55;0.88;;;;;;;;;;5106553;28;20152;-45
2023/01/09 12:47:01;;;;;;;2.72;1.00;;;;;;;;;;5110593;28;20134;-45
2023/01/09 12:49:34;;;;;;;2.85;1.00;;;;;;;;;;5110969;28;20035;-45
2023/01/09 12:52:08;;;;;;;3.92;1.00;;;;;;;;;;5107245;28;20449;-45
2023/01/09 12:54:40;;;;;;;1.17;0.80;;;;;;;;;;5107502;28;20027;-45
2023/01/09 12:57:32;;;;;;;2.13;0.70;;;;;;;;;;5109462;28;20410;-45
2023/01/09 13:00:04;;;;;;;3.10;0.73;;;;;;;;;;5108123;28;20032;-44
2023/01/09 13:02:31;;;;;;;1.60;0.90;;;;;;;;;;5110604;28;20039;-46
2023/01/09 13:04:57;;;;;;;2.08;0.80;;;;;;;;;;5110444;28;20508;-45
2023/01/09 13:07:25;;;;;;;2.63;0.98;;;;;;;;;;5101981;27;20482;-44
2023/01/09 13:10:12;;;;;;;3.03;0.73;;;;;;;;;;5109697;28;20027;-44
2023/01/09 13:12:39;;;;;;;0.88;0.57;;;;;;;;;;5058413;28;20103;-44
2023/01/09 13:15:06;;;;;;;1.92;0.85;;;;;;;;;;5110508;28;20043;-45
2023/01/09 13:20:28;;;;;;;0.60;0.60;;;;;;;;;;5972844;22;21666;-44
2023/01/09 13:22:54;;;;;;;0.55;0.40;;;;;;;;;;5054221;28;20029;-43
2023/01/09 13:25:30;;;;;;;0.88;0.68;;;;;;;;;;5049418;28;20025;-44
2023/01/09 13:27:59;;;;;;;1.10;1.00;;;;;;;;;;5049875;28;20033;-42
2023/01/09 13:30:31;;;;;;;1.30;0.77;;;;;;;;;;5049912;28;20028;-43
2023/01/09 13:33:18;;;;;;;0.88;0.80;;;;;;;;;;5049910;28;20075;-43
2023/01/09 13:35:48;;;;;;;0.65;0.65;;;;;;;;;;5045448;28;20028;-44
2023/01/09 13:38:17;;;;;;;0.60;0.60;;;;;;;;;;5045408;28;20438;-44
2023/01/09 13:40:43;;;;;;;0.73;0.73;;;;;;;;;;5049272;28;20028;-44
2023/01/09 13:43:09;;;;;;;1.25;0.30;;;;;;;;;;5048871;28;20556;-45
2023/01/09 13:45:37;;;;;;;0.73;0.60;;;;;;;;;;5049393;28;20079;-43
2023/01/09 13:48:09;;;;;;;0.85;0.60;;;;;;;;;;5047038;28;20044;-45
2023/01/09 13:50:36;;;;;;;0.50;0.50;;;;;;;;;;5048158;28;20689;-45
2023/01/09 13:53:23;;;;;;;0.90;0.70;;;;;;;;;;5049508;28;20033;-44
2023/01/09 13:55:59;;;;;;;2.00;0.90;;;;;;;;;;5047451;28;20021;-43
2023/01/09 13:58:29;;;;;;;1.38;0.60;;;;;;;;;;5048504;28;20029;-46
2023/01/09 14:00:56;;;;;;;1.38;0.85;;;;;;;;;;5048234;28;20100;-43
2023/01/09 14:03:33;;;;;;;2.40;1.10;;;;;;;;;;5046076;28;20113;-44
2023/01/09 14:05:59;;;;;;;1.42;0.90;;;;;;;;;;5035702;28;20035;-44
2023/01/09 14:08:29;;;;;;;2.03;0.80;;;;;;;;;;5048449;28;20479;-44
2023/01/09 14:10:59;;;;;;;1.58;0.95;;;;;;;;;;5047421;28;20043;-44
2023/01/09 14:13:25;;;;;;;2.03;0.70;;;;;;;;;;5048195;28;20037;-44
2023/01/09 14:16:00;;;;;;;0.95;0.63;;;;;;;;;;5039100;28;20392;-43
2023/01/09 14:18:28;;;;;;;1.90;0.95;;;;;;;;;;5039957;28;20037;-45
2023/01/09 14:21:04;;;;;;;3.85;1.00;;;;;;;;;;5049071;28;20033;-45
2023/01/09 14:23:30;;;;;;;2.22;0.85;;;;;;;;;;5048540;28;20456;-48
2023/01/09 14:25:56;;;;;;;2.47;1.05;;;;;;;;;;5048947;28;20399;-44
2023/01/09 14:28:24;;;;;;;1.60;0.90;;;;;;;;;;5049071;28;20029;-45
2023/01/09 14:30:53;;;;;;;3.88;1.13;;;;;;;;;;5048998;28;20032;-46
2023/01/09 14:33:21;;;;;;;3.20;1.42;;;;;;;;;;5048550;28;20070;-46
2023/01/09 14:36:05;;;;;;;2.17;1.42;;;;;;;;;;5038543;28;20032;-45
2023/01/09 14:38:34;;;;;;;4.45;1.23;;;;;;;;;;5030576;28;20100;-45
2023/01/09 14:41:00;;;;;;;2.72;1.08;;;;;;;;;;5048170;28;20025;-44
2023/01/09 14:43:30;;;;;;;2.20;1.05;;;;;;;;;;5043347;28;20103;-44
2023/01/09 14:45:58;;;;;;;3.03;0.95;;;;;;;;;;5043193;28;20630;-45
2023/01/09 14:48:26;;;;;;;3.53;1.08;;;;;;;;;;5048081;28;20414;-44
2023/01/09 14:50:54;;;;;;;2.92;1.30;;;;;;;;;;5047784;28;20033;-45
2023/01/09 14:53:23;;;;;;;1.60;0.85;;;;;;;;;;5048577;28;20033;-43
2023/01/09 14:55:59;;;;;;;5.18;1.00;;;;;;;;;;5051420;28;20550;-43
2023/01/09 14:58:25;;;;;;;3.40;1.05;;;;;;;;;;5050263;28;20449;-46
2023/01/09 15:01:00;;;;;;;2.78;1.45;;;;;;;;;;5051068;28;20395;-46
2023/01/09 15:03:29;;;;;;;2.90;0.93;;;;;;;;;;5051830;28;20039;-44
2023/01/09 15:05:55;;;;;;;1.88;1.00;;;;;;;;;;5049959;28;20029;-44
2023/01/09 15:08:23;;;;;;;1.40;0.80;;;;;;;;;;5050587;28;20098;-44
2023/01/09 15:10:50;;;;;;;1.42;0.88;;;;;;;;;;5049964;28;20375;-45
2023/01/09 15:13:20;;;;;;;2.30;0.90;;;;;;;;;;5051714;28;20356;-45
2023/01/09 15:15:49;;;;;;;1.10;0.80;;;;;;;;;;5050013;28;20029;-44
2023/01/09 15:18:25;;;;;;;1.27;0.85;;;;;;;;;;5051115;28;20033;-43
2023/01/09 15:20:53;;;;;;;1.42;0.82;;;;;;;;;;5050687;28;20028;-46
2023/01/09 15:23:23;;;;;;;1.83;0.70;;;;;;;;;;5051512;28;20036;-44
2023/01/09 15:25:50;;;;;;;2.00;1.00;;;;;;;;;;5051456;28;20029;-44
2023/01/09 15:28:24;;;;;;;2.60;0.73;;;;;;;;;;5050233;28;20461;-45
2023/01/09 15:30:58;;;;;;;1.58;0.75;;;;;;;;;;5051330;28;20135;-44
2023/01/09 15:33:25;;;;;;;1.50;0.77;;;;;;;;;;5051304;28;20029;-43
2023/01/09 15:35:57;;;;;;;1.50;0.70;;;;;;;;;;5051607;28;20029;-44
2023/01/09 15:38:24;;;;;;;0.75;0.60;;;;;;;;;;5050278;28;20025;-46
2023/01/09 15:41:10;;;;;;;3.65;1.10;;;;;;;;;;5050714;28;20025;-44
2023/01/09 15:43:39;;;;;;;4.20;1.00;;;;;;;;;;5048551;28;20112;-44
2023/01/09 15:46:05;;;;;;;2.40;0.80;;;;;;;;;;5048174;28;20029;-45
2023/01/09 15:48:33;;;;;;;2.45;0.80;;;;;;;;;;5027022;28;20042;-44
2023/01/09 15:51:09;;;;;;;1.67;0.95;;;;;;;;;;5045812;28;20037;-44
2023/01/09 15:53:35;;;;;;;2.38;0.93;;;;;;;;;;5045379;28;20076;-43
2023/01/09 15:56:03;;;;;;;2.80;0.63;;;;;;;;;;5044786;28;20029;-45
2023/01/09 15:58:33;;;;;;;2.58;1.48;;;;;;;;;;5048851;28;20533;-45
2023/01/09 16:01:00;;;;;;;2.63;1.35;;;;;;;;;;5050570;28;20392;-44
2023/01/09 16:03:27;;;;;;;3.03;1.00;;;;;;;;;;5047255;28;20037;-45
2023/01/09 16:05:57;;;;;;;2.17;1.02;;;;;;;;;;5049436;28;20021;-43
2023/01/09 16:08:28;;;;;;;2.13;0.90;;;;;;;;;;5048994;28;20490;-44
2023/01/09 16:10:58;;;;;;;4.28;1.20;;;;;;;;;;5050145;28;20033;-42
2023/01/09 16:13:25;;;;;;;2.38;1.00;;;;;;;;;;5046963;28;20032;-42
2023/01/09 16:15:51;;;;;;;1.70;1.08;;;;;;;;;;5049549;28;20029;-42
2023/01/09 16:18:17;;;;;;;1.63;1.00;;;;;;;;;;5047332;28;20462;-44
2023/01/09 16:20:44;;;;;;;2.65;1.15;;;;;;;;;;5047729;28;20061;-41
2023/01/09 16:23:28;;;;;;;3.90;1.30;;;;;;;;;;5050862;28;20036;-42
2023/01/09 16:26:03;;;;;;;1.83;1.10;;;;;;;;;;5049055;28;20040;-43
2023/01/09 16:28:29;;;;;;;2.60;1.10;;;;;;;;;;5046621;28;20028;-43
2023/01/09 16:30:57;;;;;;;2.15;1.45;;;;;;;;;;5049066;28;20053;-45
2023/01/09 16:33:24;;;;;;;2.38;1.23;;;;;;;;;;5050498;28;20053;-46
2023/01/09 16:35:51;;;;;;;2.83;1.63;;;;;;;;;;5049769;28;20036;-45
2023/01/09 16:38:17;;;;;;;3.42;1.85;;;;;;;;;;5049797;28;20037;-45
2023/01/09 16:43:43;;;;;;;2.58;1.10;;;;;;;;;;5050996;28;20036;-46
2023/01/09 16:46:09;;;;;;;2.50;1.30;;;;;;;;;;5048286;28;20561;-46
2023/01/09 16:48:35;;;;;;;2.75;1.25;;;;;;;;;;5050948;28;20033;-46
2023/01/09 16:51:01;;;;;;;1.55;0.90;;;;;;;;;;5049294;28;20111;-46
2023/01/09 16:53:30;;;;;;;3.85;1.25;;;;;;;;;;5049654;28;20107;-45
2023/01/09 16:55:57;;;;;;;1.70;1.20;;;;;;;;;;5050730;28;20036;-46
2023/01/09 16:58:30;;;;;;;2.47;1.35;;;;;;;;;;5050202;28;20116;-44
2023/01/09 17:00:57;;;;;;;2.28;1.08;;;;;;;;;;5048760;28;20025;-47
2023/01/09 17:03:23;;;;;;;2.20;1.23;;;;;;;;;;5050303;28;20025;-45
2023/01/09 17:05:53;;;;;;;3.13;1.20;;;;;;;;;;5048504;28;20028;-44
2023/01/09 17:08:21;;;;;;;2.47;1.15;;;;;;;;;;5048561;28;20033;-46
2023/01/09 17:10:48;;;;;;;2.03;1.00;;;;;;;;;;5050686;28;20036;-47
2023/01/09 17:13:14;;;;;;;3.13;1.40;;;;;;;;;;5049258;28;20439;-45
2023/01/09 17:15:40;;;;;;;1.77;1.00;;;;;;;;;;5049007;28;20056;-45
2023/01/09 17:18:12;;;;;;;2.20;1.40;;;;;;;;;;5042192;28;20091;-44
2023/01/09 17:20:39;;;;;;;2.53;1.20;;;;;;;;;;5046924;28;20075;-44
2023/01/09 17:23:05;;;;;;;3.60;1.30;;;;;;;;;;5047502;28;20511;-45
2023/01/09 17:28:30;;;;;;;1.75;0.93;;;;;;;;;;5048927;28;20075;-45
2023/01/09 17:30:57;;;;;;;2.65;1.30;;;;;;;;;;5048666;28;20617;-45
2023/01/09 17:33:23;;;;;;;2.83;1.27;;;;;;;;;;5049551;28;20033;-46
2023/01/09 17:35:49;;;;;;;4.07;1.55;;;;;;;;;;5049335;28;20021;-46
2023/01/09 17:38:15;;;;;;;2.03;1.15;;;;;;;;;;5033684;28;20454;-46
2023/01/09 17:40:42;;;;;;;3.90;1.70;;;;;;;;;;5047977;28;20024;-46
2023/01/09 17:43:08;;;;;;;6.97;2.13;;;;;;;;;;5049760;28;20025;-46
2023/01/09 17:45:35;;;;;;;4.20;1.90;;;;;;;;;;5048709;28;20071;-46
2023/01/09 17:48:01;;;;;;;3.78;1.67;;;;;;;;;;5048794;28;20025;-47
2023/01/09 17:50:31;;;;;;;2.83;1.45;;;;;;;;;;5047307;28;20033;-46
2023/01/09 17:52:57;;;;;;;4.07;1.98;;;;;;;;;;5047587;28;20403;-48
2023/01/09 17:55:23;;;;;;;2.10;1.27;;;;;;;;;;5048357;28;20092;-47
2023/01/09 17:57:49;;;;;;;2.25;1.20;;;;;;;;;;5046827;28;20147;-46
2023/01/09 18:00:29;;;;;;;4.20;1.38;;;;;;;;;;5045525;28;20495;-47
2023/01/09 18:02:56;;;;;;;2.38;1.20;;;;;;;;;;5043234;28;20029;-45
2023/01/09 18:05:22;;;;;;;2.83;1.17;;;;;;;;;;5045891;28;20313;-46
2023/01/09 18:07:48;;;;;;;2.33;1.23;;;;;;;;;;5045091;28;20025;-47
2023/01/09 18:10:15;;;;;;;3.28;1.40;;;;;;;;;;5047102;28;20033;-45
2023/01/09 18:12:41;;;;;;;2.58;1.20;;;;;;;;;;5046394;28;20447;-46
2023/01/09 18:15:08;;;;;;;1.50;1.15;;;;;;;;;;5027446;28;20080;-45
2023/01/09 18:17:34;;;;;;;2.85;1.58;;;;;;;;;;5047020;28;20500;-50
2023/01/09 18:20:00;;;;;;;3.00;1.63;;;;;;;;;;5047493;28;20051;-45
2023/01/09 18:22:26;;;;;;;2.05;1.45;;;;;;;;;;5027003;28;20136;-45
2023/01/09 18:24:52;;;;;;;2.55;1.60;;;;;;;;;;5008828;28;20028;-46
2023/01/09 18:27:18;;;;;;;2.05;1.50;;;;;;;;;;5026968;28;20100;-46
2023/01/09 18:29:46;;;;;;;2.80;2.05;;;;;;;;;;5026650;28;20484;-46
2023/01/09 18:32:12;;;;;;;3.30;2.00;;;;;;;;;;5009136;28;20037;-45
2023/01/09 18:34:38;;;;;;;2.38;2.05;;;;;;;;;;5046051;28;20215;-46
2023/01/09 18:37:04;;;;;;;2.83;2.30;;;;;;;;;;5045877;28;20446;-48
2023/01/09 18:39:30;;;;;;;1.73;1.40;;;;;;;;;;5045007;28;20126;-48
2023/01/09 18:41:57;;;;;;;3.08;1.85;;;;;;;;;;5026759;28;20024;-46
2023/01/09 18:44:23;;;;;;;4.13;2.05;;;;;;;;;;5026789;28;20082;-47
2023/01/09 18:46:49;;;;;;;2.53;1.90;;;;;;;;;;5045931;28;20025;-45
2023/01/09 18:49:15;;;;;;;2.58;1.83;;;;;;;;;;5046236;28;20580;-46
2023/01/09 18:51:44;;;;;;;3.30;1.70;;;;;;;;;;5044520;28;20036;-45
2023/01/09 18:54:12;;;;;;;5.00;2.30;;;;;;;;;;5044435;28;20036;-48
2023/01/09 18:56:39;;;;;;;3.42;2.10;;;;;;;;;;5043801;28;20082;-45
2023/01/09 18:59:05;;;;;;;4.90;2.20;;;;;;;;;;5044291;28;20578;-46
2023/01/09 19:01:31;;;;;;;3.80;2.05;;;;;;;;;;5044300;28;20092;-46
2023/01/09 19:03:58;;;;;;;2.80;1.65;;;;;;;;;;5044455;28;20238;-46
2023/01/09 19:06:24;;;;;;;3.45;1.42;;;;;;;;;;5043930;28;20018;-47
2023/01/09 19:08:51;;;;;;;2.90;1.50;;;;;;;;;;5043519;28;20029;-45
2023/01/09 19:11:17;;;;;;;2.15;1.50;;;;;;;;;;5042903;28;20029;-46
2023/01/09 19:13:43;;;;;;;1.83;1.20;;;;;;;;;;5044099;28;20040;-47
2023/01/09 19:16:10;;;;;;;2.35;1.30;;;;;;;;;;5043781;28;20037;-49
2023/01/09 19:18:37;;;;;;;3.15;1.73;;;;;;;;;;5044401;28;20032;-46
2023/01/09 19:21:08;;;;;;;2.40;1.30;;;;;;;;;;5044950;28;20151;-47
2023/01/09 19:23:34;;;;;;;3.15;1.40;;;;;;;;;;5043675;28;20550;-47
2023/01/09 19:26:03;;;;;;;3.38;1.63;;;;;;;;;;5042721;28;20125;-45
2023/01/09 19:28:29;;;;;;;3.13;1.80;;;;;;;;;;5045764;28;20467;-46
2023/01/09 19:30:56;;;;;;;2.92;1.75;;;;;;;;;;5046222;28;20037;-45
2023/01/09 19:33:23;;;;;;;4.05;2.13;;;;;;;;;;5046181;28;20025;-45
2023/01/09 19:35:50;;;;;;;5.07;2.17;;;;;;;;;;5027875;28;20029;-45
2023/01/09 19:38:16;;;;;;;4.38;2.28;;;;;;;;;;5044875;28;20678;-48
2023/01/09 19:40:42;;;;;;;4.65;2.70;;;;;;;;;;5045780;28;20075;-46
2023/01/09 19:43:09;;;;;;;4.80;2.58;;;;;;;;;;5049009;28;20029;-47
2023/01/09 19:45:35;;;;;;;4.35;2.38;;;;;;;;;;5049871;28;20036;-49
2023/01/09 19:48:01;;;;;;;3.28;1.98;;;;;;;;;;5047904;28;20068;-46
2023/01/09 19:50:27;;;;;;;5.78;2.60;;;;;;;;;;5029987;28;20495;-46
2023/01/09 19:52:53;;;;;;;4.15;2.50;;;;;;;;;;5047929;28;20029;-49
2023/01/09 19:55:19;;;;;;;4.07;2.28;;;;;;;;;;5049219;28;20541;-47
2023/01/09 19:57:45;;;;;;;5.15;2.92;;;;;;;;;;5048330;28;20526;-45
2023/01/09 20:00:12;;;;;;;5.35;3.00;;;;;;;;;;5049043;28;20043;-45
2023/01/09 20:02:39;;;;;;;5.53;3.35;;;;;;;;;;5049300;28;20044;-45
2023/01/09 20:05:05;;;;;;;10.85;7.18;;;;;;;;;;5049628;28;20029;-47
2023/01/09 20:07:32;;;;;;;10.80;7.68;;;;;;;;;;5045766;28;20131;-46
2023/01/09 20:09:58;;;;;;;10.30;6.38;;;;;;;;;;5047465;28;20399;-45
2023/01/09 20:12:24;;;;;;;12.05;7.03;;;;;;;;;;5047475;28;20035;-47
2023/01/09 20:14:50;;;;;;;12.95;6.93;;;;;;;;;;5047113;28;20091;-46
2023/01/09 20:17:18;;;;;;;10.90;5.95;;;;;;;;;;5047736;28;20421;-45
2023/01/09 20:19:44;;;;;;;10.43;5.35;;;;;;;;;;5046500;28;20028;-46
2023/01/09 20:22:10;;;;;;;7.93;4.28;;;;;;;;;;5045577;28;20033;-46